KCMX/CMX METAR and TAF weather

Enter ICAO airport designator
Station Type Date Time Source
KCMX METAR 2019/09/20 19:53 UTC NOAA

KCMX 201953Z AUTO 08005KT 10SM OVC006 20/17 A3010 RMK AO2 SLP191 T02000172


Station Type Date Time Source
KCMX Decoded METAR 2019/09/20 19:53 UTC NOAA

HANCOCK HOUGHTON CTY. MEMO, MI, United States (KCMX) 47-10N 088-29W 326M
Sep 20, 2019 - 03:53 PM EDT / 2019.09.20 1953 UTC
Wind: from the E (080 degrees) at 6 MPH (5 KT):0
Visibility: 10 mile(s):0
Sky conditions: overcast
Temperature: 68.0 F (20.0 C)
Dew Point: 63.0 F (17.2 C)
Relative Humidity: 83%
Pressure (altimeter): 30.1 in. Hg (1019 hPa)
ob: KCMX 201953Z AUTO 08005KT 10SM OVC006 20/17 A3010 RMK AO2 SLP191 T02000172
cycle: 20

Station Type Date Time Source
KCMX TAF 2019/09/20 20:58 UTC NOAA

TAF
AMD KCMX 201957Z 2020/2118 10005KT P6SM OVC006
FM210000 11006KT 1SM BR OVC006
FM210200 11006KT 1/2SM FG BKN024
FM211200 15005KT 1/2SM FG SCT008
FM211700 19012KT P6SM SCT070

Example: see airport list